Time;durP1;ratioP1;P1;durP2;ratioP2;P2;SDS_P1;SDS_P2;PMS_P1;PMS_P2;Temp;Humidity;BMP_temperature;BMP_pressure;BME280_temperature;BME280_humidity;BME280_pressure;Samples;Min_cycle;Max_cycle;Signal;HPM_P1;HPM_P2
2021/07/05 06:07:55;;;;;;;7.88;3.97;;;;;;;;;;5041431;23;20047;-67
2021/07/05 06:10:22;;;;;;;8.52;4.15;;;;;;;;;;4973873;28;20041;-68
2021/07/05 06:12:49;;;;;;;5.95;3.90;;;;;;;;;;4973423;28;20542;-65
2021/07/05 06:15:16;;;;;;;8.27;4.20;;;;;;;;;;4973454;28;20031;-67
2021/07/05 06:17:42;;;;;;;12.57;4.38;;;;;;;;;;4973629;28;20038;-67
2021/07/05 06:20:09;;;;;;;5.32;3.78;;;;;;;;;;4973085;28;20023;-66
2021/07/05 06:22:53;;;;;;;8.55;4.05;;;;;;;;;;4972449;28;20041;-66
2021/07/05 06:25:19;;;;;;;8.70;4.90;;;;;;;;;;4969899;28;20406;-66
2021/07/05 06:27:45;;;;;;;6.57;3.90;;;;;;;;;;4973470;28;20041;-67
2021/07/05 06:30:12;;;;;;;8.65;4.40;;;;;;;;;;4973254;28;20027;-67
2021/07/05 06:32:38;;;;;;;11.27;4.00;;;;;;;;;;4973079;28;20583;-66
2021/07/05 06:35:04;;;;;;;9.30;4.97;;;;;;;;;;4973133;28;20463;-67
2021/07/05 06:37:31;;;;;;;8.20;4.18;;;;;;;;;;4972947;28;20038;-67
2021/07/05 06:39:57;;;;;;;8.20;4.57;;;;;;;;;;4973108;28;20054;-66
2021/07/05 06:42:23;;;;;;;7.45;3.67;;;;;;;;;;4973165;28;20081;-65
2021/07/05 06:44:49;;;;;;;9.73;4.50;;;;;;;;;;4973015;28;20027;-66
2021/07/05 06:47:15;;;;;;;11.50;4.75;;;;;;;;;;4973200;28;20037;-65
2021/07/05 06:49:42;;;;;;;7.13;4.60;;;;;;;;;;4973023;28;20445;-65
2021/07/05 06:52:08;;;;;;;7.32;4.40;;;;;;;;;;4972853;28;20113;-66
2021/07/05 06:54:34;;;;;;;12.50;4.28;;;;;;;;;;4970401;28;20019;-65
2021/07/05 06:57:00;;;;;;;9.10;4.43;;;;;;;;;;4970527;28;20018;-65
2021/07/05 06:59:27;;;;;;;9.80;4.85;;;;;;;;;;4971192;28;20066;-65
2021/07/05 07:01:53;;;;;;;6.25;4.25;;;;;;;;;;4969914;28;20106;-66
2021/07/05 07:04:19;;;;;;;12.55;4.25;;;;;;;;;;4969373;28;20093;-64
2021/07/05 07:06:49;;;;;;;7.85;4.32;;;;;;;;;;4970825;28;20039;-65
2021/07/05 07:09:15;;;;;;;6.85;4.10;;;;;;;;;;4972513;28;20038;-65
2021/07/05 07:11:41;;;;;;;6.80;3.85;;;;;;;;;;4972788;28;20034;-66
2021/07/05 07:14:07;;;;;;;7.03;4.32;;;;;;;;;;4972318;28;20034;-64
2021/07/05 07:16:40;;;;;;;8.57;4.60;;;;;;;;;;4973013;28;20038;-65
2021/07/05 07:19:17;;;;;;;;;;;;;;;;;;4972993;28;20037;-64
2021/07/05 07:21:45;;;;;;;9.52;5.05;;;;;;;;;;4972393;28;19910;-65
2021/07/05 07:24:11;;;;;;;7.30;4.40;;;;;;;;;;4972261;28;20105;-65
2021/07/05 07:26:37;;;;;;;8.75;4.75;;;;;;;;;;4972585;28;20027;-65
2021/07/05 07:29:03;;;;;;;8.27;4.28;;;;;;;;;;4972638;28;20022;-65
2021/07/05 07:31:29;;;;;;;8.27;4.22;;;;;;;;;;4972471;28;20042;-66
2021/07/05 07:33:56;;;;;;;10.68;4.80;;;;;;;;;;4972203;28;20023;-66
2021/07/05 07:36:23;;;;;;;11.02;4.63;;;;;;;;;;4971484;28;20034;-66
2021/07/05 07:38:52;;;;;;;9.48;5.43;;;;;;;;;;4971423;28;20081;-67
2021/07/05 07:41:25;;;;;;;12.27;6.00;;;;;;;;;;4972034;28;20378;-67
2021/07/05 07:43:52;;;;;;;9.43;5.32;;;;;;;;;;4972386;28;20022;-67
2021/07/05 07:46:18;;;;;;;15.48;5.97;;;;;;;;;;4972195;28;20081;-64
2021/07/05 07:48:44;;;;;;;11.10;5.50;;;;;;;;;;4972371;28;20027;-66
2021/07/05 07:51:10;;;;;;;11.63;5.60;;;;;;;;;;4972277;28;20035;-64
2021/07/05 07:53:36;;;;;;;10.68;5.18;;;;;;;;;;4971982;28;20175;-68
2021/07/05 07:56:02;;;;;;;10.95;5.63;;;;;;;;;;4972223;28;20498;-69
2021/07/05 07:58:28;;;;;;;9.85;5.03;;;;;;;;;;4972344;28;20038;-66
2021/07/05 08:00:54;;;;;;;11.80;5.30;;;;;;;;;;4972171;28;20050;-64
2021/07/05 08:03:21;;;;;;;12.07;5.32;;;;;;;;;;4972117;28;20370;-64
2021/07/05 08:05:47;;;;;;;10.82;5.20;;;;;;;;;;4971665;28;20031;-67
2021/07/05 08:08:15;;;;;;;12.07;5.53;;;;;;;;;;4972103;28;20438;-70
2021/07/05 08:10:41;;;;;;;10.07;5.38;;;;;;;;;;4972062;28;20038;-65
2021/07/05 08:13:07;;;;;;;8.00;4.38;;;;;;;;;;4971869;28;20406;-65
2021/07/05 08:15:33;;;;;;;7.88;4.65;;;;;;;;;;4971938;28;21072;-65
2021/07/05 08:17:59;;;;;;;8.00;4.55;;;;;;;;;;4971978;28;20034;-64
2021/07/05 08:20:25;;;;;;;8.60;4.07;;;;;;;;;;4972708;28;20031;-64
2021/07/05 08:22:52;;;;;;;11.48;4.95;;;;;;;;;;4975406;28;20458;-64
2021/07/05 08:25:19;;;;;;;9.75;3.90;;;;;;;;;;4975568;28;20031;-67
2021/07/05 08:27:45;;;;;;;8.25;4.32;;;;;;;;;;4975676;28;20501;-66
2021/07/05 08:30:11;;;;;;;7.85;4.28;;;;;;;;;;4962032;28;20023;-65
2021/07/05 08:32:37;;;;;;;8.63;4.30;;;;;;;;;;4958917;28;20034;-64
2021/07/05 08:35:07;;;;;;;7.82;3.78;;;;;;;;;;4964988;28;20018;-62
2021/07/05 08:37:33;;;;;;;8.15;3.78;;;;;;;;;;4964074;28;20046;-63
2021/07/05 08:39:59;;;;;;;21.40;4.50;;;;;;;;;;4963591;28;20073;-62
2021/07/05 08:42:26;;;;;;;6.72;3.95;;;;;;;;;;4965326;28;20105;-72
2021/07/05 08:44:53;;;;;;;12.25;3.60;;;;;;;;;;4964322;28;20031;-63
2021/07/05 08:47:19;;;;;;;8.18;3.53;;;;;;;;;;4963779;28;20045;-69
2021/07/05 08:49:46;;;;;;;5.40;3.10;;;;;;;;;;4959397;28;20039;-59
2021/07/05 08:52:12;;;;;;;7.55;3.53;;;;;;;;;;4955675;29;20035;-68
2021/07/05 08:54:38;;;;;;;3.80;2.88;;;;;;;;;;4959624;28;20106;-63
2021/07/05 08:57:05;;;;;;;4.85;3.20;;;;;;;;;;4963937;28;20494;-63
2021/07/05 08:59:32;;;;;;;4.75;3.00;;;;;;;;;;4963282;28;20415;-70
2021/07/05 09:01:58;;;;;;;4.50;2.90;;;;;;;;;;4964896;28;20474;-59
2021/07/05 09:04:24;;;;;;;4.43;2.80;;;;;;;;;;4964005;28;20498;-71
2021/07/05 09:07:20;;;;;;;5.47;2.85;;;;;;;;;;4962767;28;20039;-60
2021/07/05 09:10:06;;;;;;;7.53;2.88;;;;;;;;;;4906094;29;20048;-60
2021/07/05 09:12:32;;;;;;;4.95;2.60;;;;;;;;;;4905216;29;20389;-63
2021/07/05 09:15:03;;;;;;;6.55;2.80;;;;;;;;;;4904796;29;20066;-59
2021/07/05 09:17:36;;;;;;;6.85;3.40;;;;;;;;;;4910330;29;20047;-61
2021/07/05 09:20:21;;;;;;;6.13;3.15;;;;;;;;;;4904130;29;20046;-59
2021/07/05 09:23:05;;;;;;;8.68;3.40;;;;;;;;;;4905045;29;20028;-59
2021/07/05 09:25:35;;;;;;;8.60;3.38;;;;;;;;;;4900432;29;20043;-58
2021/07/05 09:28:03;;;;;;;6.40;3.47;;;;;;;;;;4900747;29;20500;-72
2021/07/05 09:30:46;;;;;;;7.18;3.70;;;;;;;;;;4899905;29;20048;-67
2021/07/05 09:33:20;;;;;;;7.88;4.20;;;;;;;;;;4900601;29;20080;-61
2021/07/05 09:35:48;;;;;;;8.68;3.80;;;;;;;;;;4902597;29;20115;-62
2021/07/05 09:38:26;;;;;;;6.80;4.20;;;;;;;;;;4903591;29;20040;-61
2021/07/05 09:40:52;;;;;;;7.28;3.90;;;;;;;;;;4903285;29;20040;-61
2021/07/05 09:43:26;;;;;;;5.60;3.80;;;;;;;;;;4903274;29;20028;-61
2021/07/05 09:45:52;;;;;;;8.48;4.38;;;;;;;;;;4924594;28;20114;-62
2021/07/05 09:48:25;;;;;;;9.82;4.80;;;;;;;;;;4962863;28;20027;-62
2021/07/05 09:50:58;;;;;;;10.30;4.45;;;;;;;;;;4960391;28;20045;-60
2021/07/05 09:53:24;;;;;;;8.45;4.75;;;;;;;;;;4961877;28;20042;-60
2021/07/05 09:55:50;;;;;;;10.90;4.93;;;;;;;;;;4963457;28;20046;-60
2021/07/05 09:58:16;;;;;;;8.38;5.10;;;;;;;;;;4963335;28;20027;-62
2021/07/05 10:00:43;;;;;;;8.90;4.28;;;;;;;;;;4961756;28;20023;-60
2021/07/05 10:03:09;;;;;;;8.98;4.53;;;;;;;;;;4963728;28;20105;-71
2021/07/05 10:05:36;;;;;;;5.88;4.15;;;;;;;;;;4968482;28;20542;-63
2021/07/05 10:08:09;;;;;;;7.00;4.82;;;;;;;;;;4963698;28;20055;-59
2021/07/05 10:10:37;;;;;;;7.68;4.50;;;;;;;;;;4960173;28;20367;-61
2021/07/05 10:13:07;;;;;;;9.38;4.35;;;;;;;;;;4944961;28;20049;-60
2021/07/05 10:15:34;;;;;;;9.45;4.28;;;;;;;;;;4964430;28;20031;-60
2021/07/05 10:18:00;;;;;;;7.97;4.40;;;;;;;;;;4961610;28;20107;-60
2021/07/05 10:20:29;;;;;;;7.68;4.70;;;;;;;;;;4962997;28;20046;-61
2021/07/05 10:22:59;;;;;;;9.18;4.45;;;;;;;;;;4962781;28;20482;-62
2021/07/05 10:25:27;;;;;;;10.00;4.57;;;;;;;;;;4959322;28;20047;-67
2021/07/05 10:27:53;;;;;;;8.65;4.50;;;;;;;;;;4962486;28;20035;-64
2021/07/05 10:30:20;;;;;;;8.73;4.50;;;;;;;;;;4963665;28;20088;-65
2021/07/05 10:32:46;;;;;;;6.20;4.28;;;;;;;;;;4961817;28;20054;-65
2021/07/05 10:35:13;;;;;;;8.32;4.20;;;;;;;;;;4964003;28;20019;-59
2021/07/05 10:37:58;;;;;;;6.38;4.60;;;;;;;;;;4960892;28;20042;-63
2021/07/05 10:40:26;;;;;;;7.75;4.50;;;;;;;;;;4956437;28;20089;-59
2021/07/05 10:42:58;;;;;;;7.60;4.63;;;;;;;;;;4960276;28;20023;-63
2021/07/05 10:45:45;;;;;;;8.25;4.90;;;;;;;;;;4958818;28;20593;-60
2021/07/05 10:48:13;;;;;;;7.95;4.95;;;;;;;;;;4960184;28;20022;-58
2021/07/05 10:50:43;;;;;;;5.82;4.30;;;;;;;;;;4960603;28;20446;-66
2021/07/05 10:53:10;;;;;;;7.72;4.72;;;;;;;;;;4961425;28;20561;-58
2021/07/05 10:55:40;;;;;;;6.28;4.35;;;;;;;;;;4962287;28;20038;-59
2021/07/05 10:58:20;;;;;;;6.25;4.15;;;;;;;;;;4959184;28;20023;-59
2021/07/05 11:00:48;;;;;;;5.45;4.60;;;;;;;;;;4958896;28;20418;-63
2021/07/05 11:03:33;;;;;;;7.30;4.40;;;;;;;;;;4963980;28;20101;-61
2021/07/05 11:05:59;;;;;;;6.43;4.07;;;;;;;;;;4966169;28;20046;-60
2021/07/05 11:08:27;;;;;;;6.38;4.43;;;;;;;;;;4959638;28;20047;-61
2021/07/05 11:11:11;;;;;;;8.75;4.70;;;;;;;;;;4970876;28;20037;-60
2021/07/05 11:13:38;;;;;;;7.03;4.50;;;;;;;;;;4971200;28;20635;-63
2021/07/05 11:16:04;;;;;;;8.50;4.68;;;;;;;;;;4961210;28;20149;-62
2021/07/05 11:18:37;;;;;;;7.60;4.72;;;;;;;;;;4943201;28;20038;-62
2021/07/05 11:21:06;;;;;;;6.47;4.55;;;;;;;;;;4958809;28;20055;-69
2021/07/05 11:23:51;;;;;;;5.88;4.40;;;;;;;;;;4962761;28;20119;-61
2021/07/05 11:26:18;;;;;;;6.43;4.78;;;;;;;;;;4960708;28;20035;-62
2021/07/05 11:28:44;;;;;;;6.75;5.07;;;;;;;;;;4960301;28;20019;-61
2021/07/05 11:31:20;;;;;;;6.85;4.80;;;;;;;;;;4961877;28;20027;-61
2021/07/05 11:33:47;;;;;;;9.20;4.97;;;;;;;;;;4962408;28;20046;-61
2021/07/05 11:36:23;;;;;;;7.15;4.53;;;;;;;;;;4967261;28;20031;-61
2021/07/05 11:39:00;;;;;;;6.65;4.47;;;;;;;;;;4971706;28;20085;-61
2021/07/05 11:41:28;;;;;;;6.25;4.93;;;;;;;;;;4968247;28;20022;-60
2021/07/05 11:44:01;;;;;;;8.82;5.53;;;;;;;;;;4965258;28;20059;-61
2021/07/05 11:46:27;;;;;;;9.88;5.57;;;;;;;;;;4958019;28;20035;-60
2021/07/05 11:48:53;;;;;;;9.40;6.07;;;;;;;;;;4961066;28;20018;-60
2021/07/05 11:51:20;;;;;;;9.65;5.90;;;;;;;;;;4961560;28;20426;-60
2021/07/05 11:53:54;;;;;;;6.75;5.47;;;;;;;;;;4959509;28;20070;-60
2021/07/05 11:56:31;;;;;;;7.18;5.43;;;;;;;;;;4948803;28;20394;-59
2021/07/05 11:58:57;;;;;;;11.73;5.90;;;;;;;;;;4948869;28;20506;-61
2021/07/05 12:01:25;;;;;;;6.65;5.80;;;;;;;;;;4965903;28;20034;-61
2021/07/05 12:03:55;;;;;;;8.50;5.75;;;;;;;;;;4967173;28;20514;-62
2021/07/05 12:06:22;;;;;;;6.72;5.90;;;;;;;;;;4964645;28;20090;-61
2021/07/05 12:08:59;;;;;;;7.40;6.15;;;;;;;;;;4965732;28;20098;-59
2021/07/05 12:11:32;;;;;;;9.07;5.63;;;;;;;;;;4968111;28;20042;-61
2021/07/05 12:14:07;;;;;;;8.23;5.97;;;;;;;;;;4976681;28;20035;-62
2021/07/05 12:16:33;;;;;;;8.48;5.55;;;;;;;;;;4963467;28;20560;-61
2021/07/05 12:19:01;;;;;;;8.23;6.32;;;;;;;;;;4958701;28;20117;-62
2021/07/05 12:21:35;;;;;;;8.25;5.65;;;;;;;;;;4958462;29;20033;-62
2021/07/05 12:24:09;;;;;;;6.65;5.20;;;;;;;;;;4958578;29;20431;-61
2021/07/05 12:26:42;;;;;;;8.98;5.47;;;;;;;;;;4958739;29;20039;-68
2021/07/05 12:29:14;;;;;;;8.32;5.82;;;;;;;;;;4958297;28;20038;-67
2021/07/05 12:31:59;;;;;;;6.70;5.47;;;;;;;;;;4958429;28;20026;-61
2021/07/05 12:34:43;;;;;;;10.25;5.43;;;;;;;;;;4958259;29;20031;-66
2021/07/05 12:37:18;;;;;;;8.07;5.60;;;;;;;;;;4958535;29;20517;-62
2021/07/05 12:39:45;;;;;;;7.30;5.38;;;;;;;;;;4957008;29;20031;-61
2021/07/05 12:42:41;;;;;;;7.55;5.65;;;;;;;;;;4955154;28;20114;-62
2021/07/05 12:45:13;;;;;;;8.68;5.70;;;;;;;;;;4944968;29;20035;-72
2021/07/05 12:48:03;;;;;;;6.30;5.32;;;;;;;;;;4958353;29;20074;-62
2021/07/05 12:50:34;;;;;;;11.25;5.88;;;;;;;;;;4899289;29;20071;-62
2021/07/05 12:53:02;;;;;;;7.53;5.20;;;;;;;;;;4899126;29;20053;-60
2021/07/05 12:55:29;;;;;;;8.80;5.07;;;;;;;;;;4898828;29;20500;-61
2021/07/05 12:57:55;;;;;;;8.80;5.28;;;;;;;;;;4899135;29;20087;-67
2021/07/05 13:00:22;;;;;;;7.53;5.25;;;;;;;;;;4898604;29;20067;-60
2021/07/05 13:02:48;;;;;;;8.88;5.45;;;;;;;;;;4899057;29;20147;-69
2021/07/05 13:05:16;;;;;;;7.80;6.03;;;;;;;;;;4898427;29;20048;-67
2021/07/05 13:07:54;;;;;;;8.25;6.00;;;;;;;;;;4894916;29;20053;-63
2021/07/05 13:10:24;;;;;;;9.00;6.30;;;;;;;;;;4896055;29;20071;-64
2021/07/05 13:13:13;;;;;;;11.05;6.53;;;;;;;;;;4895837;29;20097;-63
2021/07/05 13:15:41;;;;;;;9.55;6.55;;;;;;;;;;4839960;29;20617;-61
2021/07/05 13:18:18;;;;;;;11.32;6.57;;;;;;;;;;4840232;29;20312;-59
2021/07/05 13:20:45;;;;;;;11.98;6.57;;;;;;;;;;4839281;29;20092;-60
2021/07/05 13:23:11;;;;;;;12.05;7.78;;;;;;;;;;4839691;29;20041;-59
2021/07/05 13:25:48;;;;;;;9.38;5.82;;;;;;;;;;4839747;29;20071;-59
2021/07/05 13:28:15;;;;;;;10.02;6.68;;;;;;;;;;4885359;29;20140;-60
2021/07/05 13:30:41;;;;;;;8.27;5.53;;;;;;;;;;4895253;29;20036;-61
2021/07/05 13:33:07;;;;;;;10.32;6.80;;;;;;;;;;4895367;29;20131;-60
2021/07/05 13:35:34;;;;;;;9.05;6.70;;;;;;;;;;4894909;29;20033;-60
2021/07/05 13:38:03;;;;;;;10.73;6.82;;;;;;;;;;4894431;29;20076;-60
2021/07/05 13:40:30;;;;;;;13.32;7.28;;;;;;;;;;4894929;29;20112;-61
2021/07/05 13:43:01;;;;;;;10.48;5.63;;;;;;;;;;4895527;29;20037;-61
2021/07/05 13:45:28;;;;;;;8.10;5.78;;;;;;;;;;4895438;29;20088;-60
2021/07/05 13:47:59;;;;;;;14.45;6.20;;;;;;;;;;4895412;29;20443;-60
2021/07/05 13:50:25;;;;;;;9.82;5.43;;;;;;;;;;4895623;29;20067;-60
2021/07/05 13:52:53;;;;;;;12.80;5.65;;;;;;;;;;4929249;29;20062;-61
2021/07/05 13:55:28;;;;;;;11.15;6.05;;;;;;;;;;4954549;29;20031;-62
2021/07/05 13:57:56;;;;;;;9.13;5.90;;;;;;;;;;4954635;29;20065;-61
2021/07/05 14:00:22;;;;;;;8.93;5.53;;;;;;;;;;4954783;29;20066;-61
2021/07/05 14:02:48;;;;;;;8.90;5.10;;;;;;;;;;4954524;29;20027;-67
2021/07/05 14:05:18;;;;;;;7.90;5.50;;;;;;;;;;4954325;29;20039;-61
2021/07/05 14:07:45;;;;;;;9.27;5.57;;;;;;;;;;4954080;28;20121;-66
2021/07/05 14:10:11;;;;;;;9.10;4.93;;;;;;;;;;4954113;29;20110;-61
2021/07/05 14:12:37;;;;;;;6.90;5.53;;;;;;;;;;4954146;29;20500;-62
2021/07/05 14:15:04;;;;;;;7.45;5.45;;;;;;;;;;4954399;29;20027;-62
2021/07/05 14:17:30;;;;;;;6.65;5.25;;;;;;;;;;4953594;28;20437;-62
2021/07/05 14:19:56;;;;;;;7.78;5.38;;;;;;;;;;4953857;29;20082;-62
2021/07/05 14:22:22;;;;;;;7.43;4.90;;;;;;;;;;4951372;29;20027;-60
2021/07/05 14:24:48;;;;;;;8.85;5.60;;;;;;;;;;4954116;29;20446;-61
2021/07/05 14:27:14;;;;;;;9.48;5.82;;;;;;;;;;4954118;29;20089;-60
2021/07/05 14:29:41;;;;;;;7.85;5.70;;;;;;;;;;4936026;29;20406;-62
2021/07/05 14:32:07;;;;;;;6.20;5.00;;;;;;;;;;4953902;29;20028;-61
2021/07/05 14:34:33;;;;;;;8.98;5.38;;;;;;;;;;4953761;29;20058;-62
2021/07/05 14:37:00;;;;;;;8.00;5.50;;;;;;;;;;4953825;29;20057;-61
2021/07/05 14:39:26;;;;;;;9.05;5.55;;;;;;;;;;4953831;29;20047;-61
2021/07/05 14:41:52;;;;;;;9.70;5.20;;;;;;;;;;4953917;29;20027;-63
2021/07/05 14:44:20;;;;;;;10.20;5.45;;;;;;;;;;4953636;29;20043;-63
2021/07/05 14:46:46;;;;;;;9.93;5.90;;;;;;;;;;4953574;29;20019;-61
2021/07/05 14:49:12;;;;;;;8.57;5.50;;;;;;;;;;4953527;29;20383;-60
2021/07/05 14:51:38;;;;;;;6.05;5.38;;;;;;;;;;4953536;29;20049;-60
2021/07/05 14:54:04;;;;;;;8.68;5.55;;;;;;;;;;4953325;29;20031;-60
2021/07/05 14:56:30;;;;;;;9.30;5.13;;;;;;;;;;4953582;29;20023;-63
2021/07/05 14:58:57;;;;;;;8.15;5.13;;;;;;;;;;4953338;29;20027;-62
2021/07/05 15:01:23;;;;;;;6.80;4.93;;;;;;;;;;4953391;29;20027;-60
2021/07/05 15:03:49;;;;;;;8.35;5.00;;;;;;;;;;4953623;29;20075;-61
2021/07/05 15:06:15;;;;;;;9.13;5.63;;;;;;;;;;4953360;29;20031;-60
2021/07/05 15:08:41;;;;;;;9.52;4.88;;;;;;;;;;4953008;29;20052;-66
2021/07/05 15:11:07;;;;;;;9.35;5.57;;;;;;;;;;4954688;28;20027;-68
2021/07/05 15:13:33;;;;;;;6.05;5.13;;;;;;;;;;4955945;28;20072;-62
2021/07/05 15:15:59;;;;;;;5.78;5.10;;;;;;;;;;4953215;28;20032;-62
2021/07/05 15:18:25;;;;;;;6.47;4.85;;;;;;;;;;4953068;29;20030;-61
2021/07/05 15:20:51;;;;;;;7.80;5.28;;;;;;;;;;4953216;29;20081;-61
2021/07/05 15:23:17;;;;;;;7.05;5.00;;;;;;;;;;4952825;29;20980;-59
2021/07/05 15:25:44;;;;;;;7.13;5.13;;;;;;;;;;4952845;29;20031;-62
2021/07/05 15:28:11;;;;;;;8.88;4.97;;;;;;;;;;4953002;29;20233;-67
2021/07/05 15:30:37;;;;;;;7.30;5.03;;;;;;;;;;4952419;28;20142;-60
2021/07/05 15:33:03;;;;;;;9.70;5.82;;;;;;;;;;4953383;29;20122;-60
2021/07/05 15:35:32;;;;;;;8.52;5.10;;;;;;;;;;4952732;29;20038;-60
2021/07/05 15:37:58;;;;;;;7.18;4.85;;;;;;;;;;4952592;28;20046;-61
2021/07/05 15:40:24;;;;;;;6.78;4.90;;;;;;;;;;4957458;28;20423;-61
2021/07/05 15:42:51;;;;;;;8.75;5.40;;;;;;;;;;4960926;28;20714;-61
2021/07/05 15:45:18;;;;;;;5.35;4.70;;;;;;;;;;4962628;28;20031;-62
2021/07/05 15:47:44;;;;;;;7.85;5.22;;;;;;;;;;4960225;28;20053;-61
2021/07/05 15:50:11;;;;;;;9.27;5.18;;;;;;;;;;4963413;28;20038;-62
2021/07/05 15:52:38;;;;;;;7.20;5.35;;;;;;;;;;4960210;28;20473;-61
2021/07/05 15:55:08;;;;;;;9.98;5.75;;;;;;;;;;4962625;28;20031;-61
2021/07/05 15:57:34;;;;;;;9.27;5.22;;;;;;;;;;4961950;28;20082;-61
2021/07/05 16:00:01;;;;;;;10.85;5.43;;;;;;;;;;4955988;28;20031;-61
2021/07/05 16:02:27;;;;;;;7.95;5.35;;;;;;;;;;4952690;29;20583;-62
2021/07/05 16:04:53;;;;;;;6.43;4.95;;;;;;;;;;4952849;29;20019;-62
2021/07/05 16:07:19;;;;;;;6.75;4.95;;;;;;;;;;4952178;29;20054;-61
2021/07/05 16:09:45;;;;;;;7.57;5.18;;;;;;;;;;4952167;29;20067;-60
2021/07/05 16:12:11;;;;;;;8.75;4.97;;;;;;;;;;4952018;29;20114;-61
2021/07/05 16:14:37;;;;;;;5.97;4.85;;;;;;;;;;4952450;29;20035;-61
2021/07/05 16:17:04;;;;;;;6.43;5.10;;;;;;;;;;4952659;29;20023;-61
2021/07/05 16:19:30;;;;;;;7.57;5.47;;;;;;;;;;4952441;29;20031;-62
2021/07/05 16:21:56;;;;;;;7.60;4.90;;;;;;;;;;4952480;29;20431;-62
2021/07/05 16:24:22;;;;;;;9.38;5.38;;;;;;;;;;4952185;29;20082;-64
2021/07/05 16:26:48;;;;;;;7.43;5.80;;;;;;;;;;4952004;29;20031;-61
2021/07/05 16:29:14;;;;;;;7.65;5.25;;;;;;;;;;4952362;29;20028;-62
2021/07/05 16:31:40;;;;;;;10.05;5.40;;;;;;;;;;4952132;29;20027;-61
2021/07/05 16:34:06;;;;;;;8.23;5.32;;;;;;;;;;4952216;29;20027;-65
2021/07/05 16:36:33;;;;;;;8.75;5.55;;;;;;;;;;4951713;29;20031;-62
2021/07/05 16:38:59;;;;;;;8.13;5.32;;;;;;;;;;4952200;29;20031;-63
2021/07/05 16:41:25;;;;;;;9.15;5.63;;;;;;;;;;4952831;28;20042;-63
2021/07/05 16:43:51;;;;;;;10.57;5.88;;;;;;;;;;4954952;29;20031;-62
2021/07/05 16:46:18;;;;;;;11.50;5.50;;;;;;;;;;4955630;29;20042;-64
2021/07/05 16:48:44;;;;;;;12.80;5.28;;;;;;;;;;4955962;29;20020;-62
2021/07/05 16:53:37;;;;;;;7.32;5.43;;;;;;;;;;4955873;29;20071;-61
2021/07/05 16:56:05;;;;;;;11.77;6.15;;;;;;;;;;4955540;29;20094;-62
2021/07/05 16:58:31;;;;;;;10.60;6.20;;;;;;;;;;4955860;29;20070;-61
2021/07/05 17:00:58;;;;;;;13.57;5.88;;;;;;;;;;4955732;29;20031;-62
2021/07/05 17:03:25;;;;;;;9.82;6.15;;;;;;;;;;4965281;28;20427;-61
2021/07/05 17:05:51;;;;;;;11.00;6.10;;;;;;;;;;4964141;28;20035;-61
2021/07/05 17:08:17;;;;;;;10.15;6.07;;;;;;;;;;4961512;28;20496;-61
2021/07/05 17:10:44;;;;;;;15.40;5.88;;;;;;;;;;4952310;29;20620;-61
2021/07/05 17:13:11;;;;;;;8.95;6.13;;;;;;;;;;4954983;29;20043;-61
2021/07/05 17:15:40;;;;;;;11.50;6.30;;;;;;;;;;4955459;29;20040;-60
2021/07/05 17:18:06;;;;;;;9.05;5.50;;;;;;;;;;4954907;29;20027;-61
2021/07/05 17:20:33;;;;;;;9.93;6.30;;;;;;;;;;4955418;29;20023;-60
2021/07/05 17:22:59;;;;;;;11.77;5.80;;;;;;;;;;4954477;29;20475;-61
2021/07/05 17:25:26;;;;;;;8.43;5.90;;;;;;;;;;4959903;28;20042;-61
2021/07/05 17:27:52;;;;;;;10.35;5.75;;;;;;;;;;4974285;28;20554;-59
2021/07/05 17:30:18;;;;;;;13.10;6.22;;;;;;;;;;4974285;28;20042;-60
2021/07/05 17:32:44;;;;;;;14.52;6.70;;;;;;;;;;4973969;28;20043;-60
2021/07/05 17:35:11;;;;;;;15.05;7.78;;;;;;;;;;4974197;28;20551;-60
2021/07/05 17:37:38;;;;;;;16.42;7.15;;;;;;;;;;4974109;28;20159;-61
2021/07/05 17:40:05;;;;;;;19.83;7.60;;;;;;;;;;4974330;28;20018;-62
2021/07/05 17:42:33;;;;;;;16.70;7.72;;;;;;;;;;4974460;28;20035;-61
2021/07/05 17:44:59;;;;;;;14.32;6.93;;;;;;;;;;4974499;28;20089;-62
2021/07/05 17:47:25;;;;;;;18.23;6.95;;;;;;;;;;4974177;28;20027;-60
2021/07/05 17:49:51;;;;;;;15.05;7.20;;;;;;;;;;4973851;28;20546;-61
2021/07/05 17:52:17;;;;;;;12.20;6.47;;;;;;;;;;4973640;28;20074;-61
2021/07/05 17:54:43;;;;;;;10.60;6.47;;;;;;;;;;4973238;28;20025;-61
2021/07/05 17:57:10;;;;;;;12.85;6.80;;;;;;;;;;4970667;28;20434;-61
2021/07/05 17:59:36;;;;;;;12.68;6.78;;;;;;;;;;4973333;28;20022;-64
2021/07/05 18:02:04;;;;;;;10.80;6.72;;;;;;;;;;4969839;28;20042;-62
2021/07/05 18:04:31;;;;;;;13.93;6.35;;;;;;;;;;4973891;28;20035;-62
2021/07/05 18:06:58;;;;;;;10.55;6.35;;;;;;;;;;4972750;28;20039;-65
2021/07/05 18:09:24;;;;;;;15.25;8.05;;;;;;;;;;4973083;28;20027;-72
2021/07/05 18:11:51;;;;;;;12.57;7.50;;;;;;;;;;4973111;28;20133;-62
2021/07/05 18:14:17;;;;;;;16.70;6.90;;;;;;;;;;4973353;28;20058;-62
2021/07/05 18:16:43;;;;;;;14.23;6.88;;;;;;;;;;4953337;29;20037;-65
2021/07/05 18:19:10;;;;;;;12.43;7.22;;;;;;;;;;4954056;29;20037;-63
2021/07/05 18:21:37;;;;;;;10.38;6.90;;;;;;;;;;4954225;29;20033;-64
2021/07/05 18:24:04;;;;;;;15.57;6.80;;;;;;;;;;4954238;29;20027;-68
2021/07/05 18:26:31;;;;;;;12.38;7.15;;;;;;;;;;4953939;29;20487;-60
2021/07/05 18:28:57;;;;;;;14.20;7.03;;;;;;;;;;4953791;29;20031;-60
2021/07/05 18:31:23;;;;;;;9.70;6.82;;;;;;;;;;4949212;29;20138;-61
2021/07/05 18:33:51;;;;;;;15.63;7.40;;;;;;;;;;4953799;29;20546;-64
2021/07/05 18:36:19;;;;;;;9.32;6.68;;;;;;;;;;4953131;29;20493;-61
2021/07/05 18:38:45;;;;;;;9.77;6.72;;;;;;;;;;4953627;29;20435;-61
2021/07/05 18:41:12;;;;;;;11.15;6.65;;;;;;;;;;4953567;29;20023;-61
2021/07/05 18:43:39;;;;;;;11.15;7.13;;;;;;;;;;4953326;29;20051;-63
2021/07/05 18:46:05;;;;;;;11.95;7.10;;;;;;;;;;4953019;29;20038;-61
2021/07/05 18:48:31;;;;;;;13.90;7.13;;;;;;;;;;4953321;29;20030;-60
2021/07/05 18:50:57;;;;;;;14.80;9.35;;;;;;;;;;4952181;29;20023;-60
2021/07/05 18:53:24;;;;;;;14.88;7.45;;;;;;;;;;4951247;29;20113;-61
2021/07/05 18:55:50;;;;;;;11.82;7.28;;;;;;;;;;4951965;29;20027;-63
2021/07/05 18:58:17;;;;;;;13.88;7.60;;;;;;;;;;4953174;29;20479;-61
2021/07/05 19:00:43;;;;;;;10.15;6.78;;;;;;;;;;4953016;29;20126;-64
2021/07/05 19:03:09;;;;;;;10.30;7.70;;;;;;;;;;4951706;29;20027;-61
2021/07/05 19:05:35;;;;;;;11.38;7.38;;;;;;;;;;4950747;28;20027;-61
2021/07/05 19:08:01;;;;;;;11.93;6.57;;;;;;;;;;4961056;28;20081;-61
2021/07/05 19:10:27;;;;;;;9.35;6.93;;;;;;;;;;4969248;28;20031;-58
2021/07/05 19:12:53;;;;;;;12.20;7.60;;;;;;;;;;4960939;28;20197;-61
2021/07/05 19:15:22;;;;;;;9.07;6.82;;;;;;;;;;4952462;29;20019;-65
2021/07/05 19:17:48;;;;;;;9.90;6.68;;;;;;;;;;4950275;29;20031;-63
2021/07/05 19:20:14;;;;;;;10.80;7.07;;;;;;;;;;4950846;29;20463;-63
2021/07/05 19:22:40;;;;;;;10.32;7.85;;;;;;;;;;4951338;28;20356;-66
2021/07/05 19:25:07;;;;;;;9.95;6.97;;;;;;;;;;4951414;28;20106;-62
2021/07/05 19:27:33;;;;;;;10.10;7.40;;;;;;;;;;4951820;29;20663;-61
2021/07/05 19:29:59;;;;;;;9.68;7.50;;;;;;;;;;4952905;29;20155;-63
2021/07/05 19:32:26;;;;;;;9.93;6.60;;;;;;;;;;4952851;29;20070;-63
2021/07/05 19:34:52;;;;;;;11.73;6.80;;;;;;;;;;4952478;29;20037;-62
2021/07/05 19:37:18;;;;;;;12.75;6.70;;;;;;;;;;4952435;29;20118;-62
2021/07/05 19:39:45;;;;;;;9.30;6.97;;;;;;;;;;4952293;29;20043;-63
2021/07/05 19:42:11;;;;;;;11.82;6.78;;;;;;;;;;4952896;29;20023;-61
2021/07/05 19:44:37;;;;;;;8.13;6.95;;;;;;;;;;4952888;29;20479;-63
2021/07/05 19:47:04;;;;;;;9.15;6.82;;;;;;;;;;4952887;29;20495;-66
2021/07/05 19:49:30;;;;;;;12.15;7.28;;;;;;;;;;4952431;29;20045;-63
2021/07/05 19:51:56;;;;;;;12.77;6.95;;;;;;;;;;4952550;29;20019;-61
2021/07/05 19:54:22;;;;;;;13.48;7.43;;;;;;;;;;4952658;29;20106;-62
2021/07/05 19:56:48;;;;;;;9.77;6.97;;;;;;;;;;4952364;29;20027;-61
2021/07/05 19:59:14;;;;;;;12.88;6.90;;;;;;;;;;4952734;29;20372;-62
2021/07/05 20:01:40;;;;;;;13.65;7.10;;;;;;;;;;4952555;29;20098;-61
2021/07/05 20:04:07;;;;;;;11.63;7.53;;;;;;;;;;4952675;29;20387;-62
2021/07/05 20:06:34;;;;;;;16.52;7.20;;;;;;;;;;4952325;29;20055;-61
2021/07/05 20:09:00;;;;;;;8.98;7.28;;;;;;;;;;4952606;29;20035;-59
2021/07/05 20:11:26;;;;;;;10.27;7.07;;;;;;;;;;4952313;29;20027;-71
2021/07/05 20:13:52;;;;;;;28.85;17.48;;;;;;;;;;4952184;29;20483;-63
2021/07/05 20:16:18;;;;;;;36.65;23.45;;;;;;;;;;4954845;28;20394;-70
2021/07/05 20:18:44;;;;;;;26.08;17.38;;;;;;;;;;4956853;29;20031;-61
2021/07/05 20:21:10;;;;;;;14.63;11.13;;;;;;;;;;4956486;29;20144;-66
2021/07/05 20:23:40;;;;;;;15.10;10.07;;;;;;;;;;4956215;29;20491;-61
2021/07/05 20:26:06;;;;;;;25.73;17.17;;;;;;;;;;4952733;29;20050;-58
2021/07/05 20:28:32;;;;;;;20.58;12.55;;;;;;;;;;4956422;29;20031;-58
2021/07/05 20:30:58;;;;;;;20.60;12.50;;;;;;;;;;4955626;29;20031;-63
2021/07/05 20:33:24;;;;;;;15.70;10.88;;;;;;;;;;4955761;29;20039;-63
2021/07/05 20:35:50;;;;;;;24.85;17.10;;;;;;;;;;4955786;29;20028;-64
2021/07/05 20:38:16;;;;;;;16.10;11.77;;;;;;;;;;4955635;29;20467;-61
2021/07/05 20:40:43;;;;;;;16.60;10.02;;;;;;;;;;4955361;29;20031;-62
2021/07/05 20:43:09;;;;;;;16.80;12.15;;;;;;;;;;4955966;29;20034;-60
2021/07/05 20:45:38;;;;;;;15.20;10.88;;;;;;;;;;4955435;29;20027;-62
2021/07/05 20:48:05;;;;;;;18.67;13.68;;;;;;;;;;4955525;29;20067;-59
2021/07/05 20:50:31;;;;;;;38.03;19.80;;;;;;;;;;4955566;29;20040;-64
2021/07/05 20:52:59;;;;;;;12.90;8.88;;;;;;;;;;4955271;29;20534;-62